108 Mile Ranch, British Columbia

10:48 AM PDT on June 22, 2017 (GMT -0700)
108 Ranch | | Change Station

Elev 3077 ft 51.74 °N, 121.37 °W | Updated 21 hours ago

Clear
Clear
53.1 °F
Feels Like 53.1 °F
N
4.2
Wind Variable Wind from North

Today
High -- | Low -- °F
--% Chance of Precip.
Yesterday
High -- | Low -- °F
Precip. -- in
Pressure 30.35 in
Visibility 9.0 miles
Clouds Clear
Dew Point 36 °F
Humidity 53%
Rainfall 0.00 in
Snow Depth Not available.
4:47 AM 9:28 PM
Waning Crescent, 3% visible
METAR CYIN 221700Z AUTO 29007KT 270V360 9SM CLR 12/M01 A3033 RMK SLP277 DENSITY ALT 3700FT
Pressure 30.35 in
Visibility 9.0 miles
Clouds Clear
Dew Point 36 °F
Humidity 53%
Rainfall 0.00 in
Snow Depth Not available.
4:47 AM 9:28 PM
Waning Crescent, 3% visible
METAR CYIN 221700Z AUTO 29007KT 270V360 9SM CLR 12/M01 A3033 RMK SLP277 DENSITY ALT 3700FT

Get Severe Weather Alerts

Thanks for signing up!

Be on the lookout for a verification email in your inbox.

You'll start receiving the daily forecast at 6 AM.

×

10-Day Weather Forecast

Almanac

Astronomy

Jun. 22, 2017 Rise Set
Actual Time
Civil Twilight
Nautical Twilight
Astronomical Twilight
Moon
Length of Visible Light
Length of Day
Tomorrow will be .
, % of the Moon is Illuminated

Today's Extremes

Country Highs Country Lows

Community

WunderPhotos

Category 6

Welcome to Category 6. This is the collective home for Weather Underground's featured writeups by Dr. Jeff Masters (right), Bob Henson (left), Chris Burt, and other regular contributors.

Nearby

Air Quality

  Air Quality AQ Index Pollutant
Not available.

Snow Depth

Station Depth Elevation

Earthquake Activity

City Distance Mag. Time & Date
Minimum magnitude displayed is 2.5.

Coastal Water Temperatures

Place Temperature

Stations

Nearby Weather Stations

Station Location Temp. Windchill Dew Point Humidity Wind Precip. Elev Updated Type
                   

Watches & Warnings

There are currently no watches in effect.